Flight Track Log - Related Links

Times and Time Zones

All times are in EST time to prevent confusion due to time zone crossing. See the KAP826 flight status page for this flight to view local times or setup timezone preferences in your user account.

Time Position Orientation Groundspeed Altitude Reporting Facility
EST Latitude Longitude Course Direction KTS MPH feet Rate Location/Type
Sun 06:56:05 PM 42.8150 -73.8225 346° North 120 138 2,100  Level Boston Center
Sun 06:56:48 PM 42.8378 -73.8353 338° Northwest 124 143 2,800 885 Climbing Boston Center
Sun 06:57:06 PM 42.8467 -73.8392 342° North 122 140 3,000 800 Climbing Boston Center
Sun 06:57:48 PM 42.8711 -73.8525 338° Northwest 129 148 3,600 900 Climbing Boston Center
Sun 06:58:06 PM 42.8803 -73.8572 339° North 128 147 3,900 700 Climbing Boston Center
Sun 06:58:48 PM 42.9050 -73.8669 344° North 130 150 4,300 590 Climbing Boston Center
Sun 06:59:07 PM 42.9181 -73.8731 341° North 132 152 4,500 387 Climbing Boston Center
Sun 06:59:50 PM 42.9428 -73.8828 344° North 132 152 4,700 281 Climbing Boston Center
Sun 07:00:11 PM 42.9519 -73.8878 338° Northwest 127 146 4,800 400 Climbing Boston Center
Sun 07:00:50 PM 42.9761 -73.9000 340° North 127 146 5,100 492 Climbing Boston Center
Sun 07:01:12 PM 42.9853 -73.9047 339° North 127 146 5,300 492 Climbing Boston Center
Sun 07:01:51 PM 43.0075 -73.9164 339° North 124 143 5,600 400 Climbing Boston Center
Sun 07:02:12 PM 43.0183 -73.9203 345° North 125 144 5,700 333 Climbing Boston Center
Sun 07:02:45 PM 43.0394 -73.9303 341° North 125 144 5,900 387 Climbing Boston Center
Sun 07:03:14 PM 43.0539 -73.9356 345° North 126 145 6,100 500 Climbing Boston Center
Sun 07:03:45 PM 43.0711 -73.9442 340° North 124 143 6,400 492 Climbing Boston Center
Sun 07:04:15 PM 43.0872 -73.9503 345° North 126 145 6,600 393 Climbing Boston Center
Sun 07:04:46 PM 43.1050 -73.9586 341° North 128 147 6,800 295 Climbing Boston Center
Sun 07:05:16 PM 43.1219 -73.9650 345° North 131 151 6,900 66 Climbing Boston Center
Sun 07:06:17 PM 43.1608 -73.9831 341° North 145 167 6,900  Level Boston Center
Sun 07:07:19 PM 43.2003 -74.0028 340° North 151 174 6,900 -49 Level Boston Center
Sun 07:08:19 PM 43.2461 -74.0253 340° North 161 185 6,800 -50 Descending Boston Center
Sun 07:09:20 PM 43.2864 -74.0447 341° North 153 176 6,800  Level Boston Center
Sun 07:10:22 PM 43.3267 -74.0625 342° North 152 175 6,800  Level Boston Center
Sun 07:11:23 PM 43.3675 -74.0822 341° North 155 178 6,800 49 Level Boston Center
Sun 07:12:24 PM 43.4044 -74.1006 340° North 156 180 6,900 50 Climbing Boston Center
Sun 07:13:24 PM 43.4439 -74.1206 340° North 153 176 6,900  Level Boston Center
Sun 07:14:24 PM 43.4922 -74.1447 340° North 155 178 6,900  Level Boston Center
Sun 07:15:25 PM 43.5328 -74.1650 340° North 155 178 6,900  Level Boston Center
Sun 07:16:27 PM 43.5739 -74.1850 341° North 156 180 6,900  Level Boston Center
Sun 07:17:29 PM 43.6153 -74.2064 339° North 158 182 6,900  Level Boston Center
Sun 07:18:29 PM 43.6581 -74.2258 342° North 160 184 6,900  Level Boston Center
Sun 07:19:31 PM 43.6992 -74.2450 341° North 159 183 6,900  Level Boston Center
Sun 07:20:33 PM 43.7392 -74.2644 341° North 155 178 6,900 49 Level Boston Center
Sun 07:21:33 PM 43.7794 -74.2836 341° North 155 178 7,000  Climbing Boston Center
Sun 07:22:34 PM 43.8206 -74.3042 340° North 155 178 6,900 -50 Descending Boston Center
Sun 07:23:34 PM 43.8622 -74.3239 341° North 157 181 6,900  Level Boston Center
Sun 07:24:35 PM 43.9022 -74.3422 342° North 154 177 6,900 -48 Level Boston Center
Sun 07:25:39 PM 43.9525 -74.3667 341° North 158 182 6,800 -49 Descending Boston Center
Sun 07:26:37 PM 43.9936 -74.3864 341° North 157 181 6,800  Level Boston Center
Sun 07:27:40 PM 44.0328 -74.4119 335° Northwest 157 181 6,800  Level Boston Center
Sun 07:28:41 PM 44.0708 -74.4389 333° Northwest 155 178 6,800  Level Boston Center
Sun 07:29:42 PM 44.1089 -74.4656 333° Northwest 153 176 6,800 50 Level Boston Center
Sun 07:30:42 PM 44.1433 -74.4950 328° Northwest 150 173 6,900 50 Climbing Boston Center
Sun 07:31:42 PM 44.1803 -74.5261 329° Northwest 153 176 6,900  Level Boston Center
Sun 07:32:42 PM 44.2167 -74.5550 330° Northwest 152 175 6,900  Level Boston Center
Sun 07:33:46 PM 44.2528 -74.5850 329° Northwest 152 175 6,900 -96 Level Boston Center
Sun 07:34:47 PM 44.2881 -74.6169 327° Northwest 151 174 6,700 -303 Descending Boston Center
Sun 07:35:45 PM 44.3258 -74.6467 331° Northwest 154 177 6,300 -555 Descending Boston Center
Sun 07:36:46 PM 44.3731 -74.6853 330° Northwest 161 185 5,600 -585 Descending Boston Center
Sun 07:37:48 PM 44.4136 -74.7181 330° Northwest 166 191 5,100 -344 Descending Boston Center
Sun 07:38:48 PM 44.4508 -74.7483 330° Northwest 161 185 4,900 -200 Descending Boston Center

Login

Don't have an account? Register now (free) for customized features, flight alerts, and more!